Time;durP1;ratioP1;P1;durP2;ratioP2;P2;SDS_P1;SDS_P2;PMS_P1;PMS_P2;Temp;Humidity;BMP_temperature;BMP_pressure;BME280_temperature;BME280_humidity;BME280_pressure;Samples;Min_cycle;Max_cycle;Signal;HPM_P1;HPM_P2
2024/03/09 00:00:58;;;;;;;;;;;;;;;6.18;100.00;101013.53;5049944;28;19920;-71
2024/03/09 00:03:25;;;;;;;;;;;;;;;6.23;100.00;101014.69;5032463;28;19921;-70
2024/03/09 00:05:51;;;;;;;;;;;;;;;6.27;100.00;101024.34;5048237;28;19975;-71
2024/03/09 00:08:17;;;;;;;;;;;;;;;6.20;100.00;101024.75;5050408;28;19964;-71
2024/03/09 00:10:44;;;;;;;;;;;;;;;6.25;100.00;101020.78;5049888;28;19930;-72
2024/03/09 00:13:10;;;;;;;;;;;;;;;6.25;100.00;101013.09;5049701;28;19931;-71
2024/03/09 00:15:35;;;;;;;;;;;;;;;6.17;100.00;101009.19;5011459;28;19948;-72
2024/03/09 00:18:01;;;;;;;;;;;;;;;6.09;100.00;101008.69;5049540;28;19921;-71
2024/03/09 00:20:34;;;;;;;;;;;;;;;6.06;100.00;101000.78;5030454;28;19964;-71
2024/03/09 00:23:00;;;;;;;;;;;;;;;6.01;100.00;100997.06;5050105;28;19920;-71
2024/03/09 00:25:28;;;;;;;;;;;;;;;5.82;100.00;101000.97;5049441;28;19971;-72
2024/03/09 00:27:54;;;;;;;;;;;;;;;5.77;100.00;101002.34;5049219;28;20363;-72
2024/03/09 00:30:20;;;;;;;;;;;;;;;5.82;100.00;100994.97;5049159;28;19956;-72
2024/03/09 00:32:49;;;;;;;;;;;;;;;5.70;100.00;100989.91;5049026;28;19978;-72
2024/03/09 00:35:14;;;;;;;;;;;;;;;5.57;100.00;100990.81;5052699;28;19936;-71
2024/03/09 00:37:40;;;;;;;;;;;;;;;5.59;100.00;100981.53;5053911;28;19917;-74
2024/03/09 00:40:08;;;;;;;;;;;;;;;5.53;100.00;100976.00;5051885;28;20003;-71
2024/03/09 00:42:37;;;;;;;;;;;;;;;5.48;100.00;100982.50;5018147;28;19921;-73
2024/03/09 00:45:03;;;;;;;;;;;;;;;5.45;100.00;100983.19;5053190;28;19982;-72
2024/03/09 00:47:29;;;;;;;;;;;;;;;5.04;100.00;100919.03;5018516;28;19964;-71
2024/03/09 00:49:56;;;;;;;;;;;;;;;5.40;100.00;100992.25;5053346;28;20024;-76
2024/03/09 00:52:25;;;;;;;;;;;;;;;5.46;100.00;100978.97;5053426;28;19928;-71
2024/03/09 00:54:51;;;;;;;;;;;;;;;5.48;100.00;100977.38;5053184;28;19921;-70
2024/03/09 00:57:16;;;;;;;;;;;;;;;5.47;100.00;100975.59;5053067;28;19965;-72
2024/03/09 00:59:41;;;;;;;;;;;;;;;5.43;100.00;100974.53;5051859;28;19932;-71
2024/03/09 01:02:07;;;;;;;;;;;;;;;5.24;100.00;100981.78;5053020;28;19921;-71
2024/03/09 01:04:32;;;;;;;;;;;;;;;5.17;100.00;100976.25;5053101;28;19986;-72
2024/03/09 01:06:58;;;;;;;;;;;;;;;5.10;100.00;100974.06;5053466;28;20421;-73
2024/03/09 01:09:25;;;;;;;;;;;;;;;5.02;100.00;100971.00;5053041;28;19920;-71
2024/03/09 01:11:52;;;;;;;;;;;;;;;4.94;100.00;100971.25;5053198;28;20054;-73
2024/03/09 01:14:17;;;;;;;;;;;;;;;4.85;100.00;100971.53;5052988;28;19982;-72
2024/03/09 01:16:44;;;;;;;;;;;;;;;4.80;100.00;100958.41;5053031;28;19924;-72
2024/03/09 01:19:09;;;;;;;;;;;;;;;4.77;100.00;100952.19;5052354;28;19943;-73
2024/03/09 01:21:35;;;;;;;;;;;;;;;4.72;100.00;100953.56;5053163;28;20364;-71
2024/03/09 01:24:01;;;;;;;;;;;;;;;4.57;100.00;100955.94;5052623;28;20023;-72
2024/03/09 01:26:26;;;;;;;;;;;;;;;4.54;100.00;100956.63;5052280;28;20400;-71
2024/03/09 01:28:52;;;;;;;;;;;;;;;4.38;100.00;100955.56;5052127;28;19921;-71
2024/03/09 01:31:18;;;;;;;;;;;;;;;4.32;100.00;100952.56;5052990;28;19964;-73
2024/03/09 01:33:44;;;;;;;;;;;;;;;4.20;100.00;100959.41;5052336;28;19974;-71
2024/03/09 01:36:10;;;;;;;;;;;;;;;4.13;100.00;100952.06;5052509;28;19924;-71
2024/03/09 01:38:37;;;;;;;;;;;;;;;4.02;100.00;100954.75;5052623;28;19917;-72
2024/03/09 01:41:02;;;;;;;;;;;;;;;3.97;100.00;100963.75;5052047;28;20476;-72
2024/03/09 01:43:29;;;;;;;;;;;;;;;4.01;100.00;100962.31;5052257;28;20012;-72
2024/03/09 01:45:55;;;;;;;;;;;;;;;3.99;100.00;100969.88;5051350;28;20340;-72
2024/03/09 01:48:21;;;;;;;;;;;;;;;4.04;100.00;100959.97;5052217;28;19920;-72
2024/03/09 01:50:47;;;;;;;;;;;;;;;4.07;100.00;100966.97;5052070;28;19916;-70
2024/03/09 01:53:13;;;;;;;;;;;;;;;4.14;100.00;100967.50;5052584;28;19959;-70
2024/03/09 01:55:39;;;;;;;;;;;;;;;4.26;100.00;100964.03;5016935;28;19916;-69
2024/03/09 01:58:06;;;;;;;;;;;;;;;4.29;100.00;100974.50;5051525;28;19991;-74
2024/03/09 02:00:37;;;;;;;;;;;;;;;4.43;100.00;100973.78;5016044;28;19916;-73
2024/03/09 02:03:08;;;;;;;;;;;;;;;4.51;100.00;100974.31;5016268;28;19932;-72
2024/03/09 02:05:36;;;;;;;;;;;;;;;4.48;100.00;100976.66;5051863;28;20015;-71
2024/03/09 02:08:05;;;;;;;;;;;;;;;4.45;100.00;100973.88;5052388;28;19940;-72
2024/03/09 02:10:30;;;;;;;;;;;;;;;4.49;100.00;100974.19;5052432;28;19916;-71
2024/03/09 02:12:57;;;;;;;;;;;;;;;4.54;100.00;100983.06;5051760;28;19928;-72
2024/03/09 02:15:27;;;;;;;;;;;;;;;4.60;100.00;100980.06;5051837;28;19925;-73
2024/03/09 02:17:52;;;;;;;;;;;;;;;4.66;100.00;100980.50;5052332;28;20019;-70
2024/03/09 02:20:17;;;;;;;;;;;;;;;4.74;100.00;100982.69;5052409;28;20007;-73
2024/03/09 02:22:46;;;;;;;;;;;;;;;4.89;100.00;100981.19;5033775;28;19931;-71
2024/03/09 02:25:11;;;;;;;;;;;;;;;5.00;100.00;100987.91;5051534;28;19970;-74
2024/03/09 02:27:37;;;;;;;;;;;;;;;5.07;100.00;100990.88;5051206;28;19920;-72
2024/03/09 02:30:02;;;;;;;;;;;;;;;5.07;100.00;100986.66;5051577;28;19931;-71
2024/03/09 02:32:29;;;;;;;;;;;;;;;5.13;100.00;100988.72;5051273;28;20354;-73
2024/03/09 02:34:55;;;;;;;;;;;;;;;5.16;100.00;100988.97;5051640;28;19927;-74
2024/03/09 02:37:20;;;;;;;;;;;;;;;5.08;100.00;100985.84;5051200;28;20011;-70
2024/03/09 02:39:45;;;;;;;;;;;;;;;5.05;100.00;100984.75;5051346;28;19917;-71
2024/03/09 02:42:11;;;;;;;;;;;;;;;5.15;100.00;100982.94;5039327;28;20443;-71
2024/03/09 02:44:40;;;;;;;;;;;;;;;5.28;100.00;100976.97;5049563;28;20023;-71
2024/03/09 02:47:05;;;;;;;;;;;;;;;5.27;100.00;100974.28;5051184;28;19928;-72
2024/03/09 02:49:30;;;;;;;;;;;;;;;5.13;100.00;100964.00;5051147;28;19920;-72
2024/03/09 02:51:56;;;;;;;;;;;;;;;4.92;100.00;100971.16;5050425;28;19921;-71
2024/03/09 02:54:23;;;;;;;;;;;;;;;4.67;100.00;100960.91;5051505;28;19971;-71
2024/03/09 02:56:49;;;;;;;;;;;;;;;4.17;100.00;100952.38;5046448;28;20003;-71
2024/03/09 02:59:16;;;;;;;;;;;;;;;3.84;100.00;100941.56;5050784;28;20435;-72
2024/03/09 03:01:41;;;;;;;;;;;;;;;3.67;100.00;100947.13;5015743;28;19959;-71
2024/03/09 03:04:07;;;;;;;;;;;;;;;3.55;100.00;100945.47;5050844;28;19987;-71
2024/03/09 03:06:32;;;;;;;;;;;;;;;3.51;100.00;100955.31;5050861;28;20377;-71
2024/03/09 03:09:18;;;;;;;;;;;;;;;3.61;100.00;100957.75;5050714;28;19943;-71
2024/03/09 03:11:43;;;;;;;;;;;;;;;3.62;100.00;100959.53;5040725;28;19928;-71
2024/03/09 03:14:09;;;;;;;;;;;;;;;3.64;100.00;100960.56;5050472;28;19913;-71
2024/03/09 03:16:37;;;;;;;;;;;;;;;3.66;100.00;100956.44;5051191;28;19921;-71
2024/03/09 03:19:06;;;;;;;;;;;;;;;3.60;100.00;100967.88;5050521;28;19921;-71
2024/03/09 03:21:33;;;;;;;;;;;;;;;3.60;100.00;100970.44;5050720;28;19920;-71
2024/03/09 03:23:58;;;;;;;;;;;;;;;3.81;100.00;100971.09;5050413;28;19917;-75
2024/03/09 03:26:24;;;;;;;;;;;;;;;4.01;100.00;100969.97;5050639;28;20308;-76
2024/03/09 03:28:50;;;;;;;;;;;;;;;4.14;100.00;100971.75;5033824;28;20348;-71
2024/03/09 03:31:17;;;;;;;;;;;;;;;4.29;100.00;100974.50;5050629;28;19925;-72
2024/03/09 03:33:43;;;;;;;;;;;;;;;4.36;100.00;100975.03;5050429;28;20376;-72
2024/03/09 03:36:09;;;;;;;;;;;;;;;4.43;100.00;100970.34;5051211;28;19978;-71
2024/03/09 03:38:37;;;;;;;;;;;;;;;4.48;100.00;100977.53;5049742;28;20003;-72
2024/03/09 03:41:06;;;;;;;;;;;;;;;4.51;100.00;100979.41;5050159;28;20288;-72
2024/03/09 03:43:33;;;;;;;;;;;;;;;4.46;100.00;100981.69;5046859;28;19975;-70
2024/03/09 03:45:59;;;;;;;;;;;;;;;4.41;100.00;100972.81;5050517;28;19925;-70
2024/03/09 03:48:24;;;;;;;;;;;;;;;4.41;100.00;100977.00;5049134;28;20304;-76
2024/03/09 03:50:50;;;;;;;;;;;;;;;4.36;100.00;100975.03;5050195;28;20562;-73
2024/03/09 03:53:15;;;;;;;;;;;;;;;4.49;100.00;100968.22;5050249;28;19917;-71
2024/03/09 03:55:42;;;;;;;;;;;;;;;4.55;100.00;100968.63;5050788;28;20410;-72
2024/03/09 03:58:07;;;;;;;;;;;;;;;4.51;100.00;100975.22;5049601;28;20011;-71
2024/03/09 04:00:33;;;;;;;;;;;;;;;4.52;100.00;100986.31;5050781;28;20023;-71
2024/03/09 04:02:59;;;;;;;;;;;;;;;4.32;100.00;100983.25;5049315;28;20354;-72
2024/03/09 04:05:28;;;;;;;;;;;;;;;4.18;100.00;100984.81;5049882;28;19979;-72
2024/03/09 04:07:54;;;;;;;;;;;;;;;4.16;100.00;100990.63;5049166;28;19972;-72
2024/03/09 04:10:20;;;;;;;;;;;;;;;4.24;100.00;100988.59;5049925;28;20384;-72
2024/03/09 04:12:46;;;;;;;;;;;;;;;4.33;100.00;100990.13;5049932;28;20008;-72
2024/03/09 04:15:13;;;;;;;;;;;;;;;4.47;100.00;100992.78;5049492;28;20004;-72
2024/03/09 04:17:39;;;;;;;;;;;;;;;4.57;100.00;100991.75;5050291;28;19921;-70
2024/03/09 04:20:05;;;;;;;;;;;;;;;4.63;100.00;100999.84;5050606;28;20368;-71
2024/03/09 04:22:32;;;;;;;;;;;;;;;4.55;100.00;100999.31;5014246;28;20429;-70
2024/03/09 04:24:57;;;;;;;;;;;;;;;4.22;100.00;100993.59;5049100;28;19921;-72
2024/03/09 04:27:23;;;;;;;;;;;;;;;3.87;100.00;100992.84;5049542;28;19925;-70
2024/03/09 04:29:50;;;;;;;;;;;;;;;3.73;100.00;100989.31;5049869;28;20316;-71
2024/03/09 04:32:33;;;;;;;;;;;;;;;3.65;100.00;100990.44;4977554;28;20012;-76
2024/03/09 04:35:01;;;;;;;;;;;;;;;3.55;100.00;100987.94;4977732;28;20045;-72
2024/03/09 04:37:27;;;;;;;;;;;;;;;3.40;100.00;100991.16;4970662;28;19922;-71
2024/03/09 04:39:53;;;;;;;;;;;;;;;3.38;100.00;100989.28;4979028;28;19929;-71
2024/03/09 04:42:19;;;;;;;;;;;;;;;3.42;100.00;100985.28;4982316;28;19945;-72
2024/03/09 04:44:45;;;;;;;;;;;;;;;3.44;100.00;100984.63;4976042;28;19926;-72
2024/03/09 04:47:11;;;;;;;;;;;;;;;3.53;100.00;100977.63;4980569;28;20000;-74
2024/03/09 04:49:37;;;;;;;;;;;;;;;3.64;100.00;100978.44;4984200;28;20463;-72
2024/03/09 04:52:05;;;;;;;;;;;;;;;3.66;100.00;100984.50;4971072;28;20404;-72
2024/03/09 04:54:30;;;;;;;;;;;;;;;3.48;100.00;100984.06;4979126;28;19921;-72
2024/03/09 04:56:56;;;;;;;;;;;;;;;3.30;100.00;100988.72;4982979;28;19929;-72
2024/03/09 04:59:21;;;;;;;;;;;;;;;3.25;100.00;100992.56;4980902;28;20026;-71
2024/03/09 05:01:47;;;;;;;;;;;;;;;3.23;100.00;100994.13;4979304;28;19930;-72
2024/03/09 05:04:15;;;;;;;;;;;;;;;3.24;100.00;100999.34;5026835;28;19921;-71
2024/03/09 05:06:41;;;;;;;;;;;;;;;3.26;100.00;100999.44;5048790;28;19964;-71
2024/03/09 05:09:08;;;;;;;;;;;;;;;3.35;100.00;100995.06;5047696;28;19924;-71
2024/03/09 05:11:34;;;;;;;;;;;;;;;3.48;100.00;100998.50;5049277;28;19917;-74
2024/03/09 05:14:00;;;;;;;;;;;;;;;3.60;100.00;100996.88;5049449;28;19923;-71
2024/03/09 05:16:25;;;;;;;;;;;;;;;3.63;100.00;101001.31;5048821;28;19920;-74
2024/03/09 05:18:52;;;;;;;;;;;;;;;3.55;100.00;101004.19;5048254;28;19928;-71
2024/03/09 05:21:18;;;;;;;;;;;;;;;3.51;100.00;101003.81;5049412;28;19924;-72
2024/03/09 05:23:43;;;;;;;;;;;;;;;3.47;100.00;101000.16;5052412;28;20015;-73
2024/03/09 05:26:10;;;;;;;;;;;;;;;3.44;100.00;101004.16;5027900;28;19975;-71
2024/03/09 05:28:37;;;;;;;;;;;;;;;3.40;100.00;101003.94;5052148;28;19971;-72
2024/03/09 05:31:04;;;;;;;;;;;;;;;3.42;100.00;101010.81;5052553;28;19917;-72
2024/03/09 05:33:30;;;;;;;;;;;;;;;3.45;100.00;101013.59;5052537;28;20297;-69
2024/03/09 05:35:55;;;;;;;;;;;;;;;3.48;100.00;101006.16;5053108;28;19967;-71
2024/03/09 05:38:21;;;;;;;;;;;;;;;3.51;100.00;101007.25;5052138;28;19962;-72
2024/03/09 05:40:46;;;;;;;;;;;;;;;3.56;100.00;101011.06;5052390;28;19921;-73
2024/03/09 05:43:13;;;;;;;;;;;;;;;3.64;100.00;101015.81;5052050;28;19924;-72
2024/03/09 05:45:39;;;;;;;;;;;;;;;3.78;100.00;101021.97;5046916;28;19925;-73
2024/03/09 05:48:05;;;;;;;;;;;;;;;3.84;100.00;101025.84;5052245;28;19921;-74
2024/03/09 05:50:30;;;;;;;;;;;;;;;3.91;100.00;101028.84;5052223;28;19974;-72
2024/03/09 05:52:57;;;;;;;;;;;;;;;3.98;100.00;101031.94;5051957;28;19921;-73
2024/03/09 05:55:23;;;;;;;;;;;;;;;4.03;100.00;101035.72;5051250;28;19916;-71
2024/03/09 05:57:49;;;;;;;;;;;;;;;4.10;100.00;101034.53;5052144;28;19927;-73
2024/03/09 06:00:24;;;;;;;;;;;;;;;4.17;100.00;101034.16;5052041;28;20805;-77
2024/03/09 06:02:50;;;;;;;;;;;;;;;4.24;100.00;101039.72;5051735;28;19928;-73
2024/03/09 06:05:16;;;;;;;;;;;;;;;4.30;100.00;101040.16;5051204;28;20384;-72
2024/03/09 06:07:42;;;;;;;;;;;;;;;4.35;100.00;101041.41;5051624;28;19916;-72
2024/03/09 06:10:09;;;;;;;;;;;;;;;4.45;100.00;101041.25;5051941;28;19925;-72
2024/03/09 06:12:35;;;;;;;;;;;;;;;4.55;100.00;101042.78;5052075;28;19919;-75
2024/03/09 06:15:06;;;;;;;;;;;;;;;4.65;100.00;101044.34;5051948;28;20384;-73
2024/03/09 06:17:32;;;;;;;;;;;;;;;4.64;100.00;101043.44;5034034;28;20396;-73
2024/03/09 06:20:02;;;;;;;;;;;;;;;4.77;100.00;101050.31;5051817;28;19981;-76
2024/03/09 06:22:30;;;;;;;;;;;;;;;4.87;100.00;101049.25;5040302;28;19921;-73
2024/03/09 06:24:55;;;;;;;;;;;;;;;4.95;100.00;101053.25;5050050;28;20004;-74
2024/03/09 06:27:21;;;;;;;;;;;;;;;5.00;100.00;101045.88;5051874;28;20011;-73
2024/03/09 06:29:46;;;;;;;;;;;;;;;5.05;100.00;101051.28;5034017;28;19920;-75
2024/03/09 06:32:11;;;;;;;;;;;;;;;5.13;100.00;101055.28;5047672;28;19974;-73
2024/03/09 06:34:43;;;;;;;;;;;;;;;5.16;100.00;101060.63;5051571;28;19916;-71
2024/03/09 06:37:09;;;;;;;;;;;;;;;5.17;100.00;101059.81;5045563;28;19956;-72
2024/03/09 06:39:37;;;;;;;;;;;;;;;5.19;100.00;101060.81;5052855;28;19921;-73
2024/03/09 06:42:05;;;;;;;;;;;;;;;5.27;100.00;101064.78;5051697;28;20269;-73
2024/03/09 06:44:32;;;;;;;;;;;;;;;5.30;100.00;101059.88;5051475;28;19925;-71
2024/03/09 06:46:57;;;;;;;;;;;;;;;5.44;100.00;101067.59;5051750;28;19975;-73
2024/03/09 06:49:23;;;;;;;;;;;;;;;5.51;100.00;101065.53;5051294;28;19929;-70
2024/03/09 06:51:48;;;;;;;;;;;;;;;5.57;100.00;101074.41;5047432;28;19932;-73
2024/03/09 06:54:14;;;;;;;;;;;;;;;5.58;100.00;101078.75;5043843;28;20265;-72
2024/03/09 06:56:40;;;;;;;;;;;;;;;5.61;100.00;101072.19;5050793;28;19987;-72
2024/03/09 06:59:06;;;;;;;;;;;;;;;5.60;100.00;101075.50;5050268;28;19921;-72
2024/03/09 07:01:31;;;;;;;;;;;;;;;5.55;100.00;101082.00;5032797;28;20431;-70
2024/03/09 07:04:03;;;;;;;;;;;;;;;5.57;100.00;101075.31;4992186;28;19928;-71
2024/03/09 07:06:28;;;;;;;;;;;;;;;5.62;100.00;101079.09;5032117;28;19920;-73
2024/03/09 07:08:55;;;;;;;;;;;;;;;5.64;100.00;101071.50;5050112;28;19935;-72
2024/03/09 07:11:20;;;;;;;;;;;;;;;5.71;100.00;101067.66;5050557;28;20301;-71
2024/03/09 07:13:45;;;;;;;;;;;;;;;5.78;100.00;101070.75;5050233;28;19927;-71
2024/03/09 07:16:11;;;;;;;;;;;;;;;5.88;100.00;101067.13;5050990;28;19925;-73
2024/03/09 07:18:37;;;;;;;;;;;;;;;5.94;100.00;101067.50;5050114;28;20446;-71
2024/03/09 07:21:05;;;;;;;;;;;;;;;5.95;100.00;101074.38;5050246;28;19921;-71
2024/03/09 07:23:31;;;;;;;;;;;;;;;6.03;100.00;101074.03;5049704;28;20472;-70
2024/03/09 07:25:56;;;;;;;;;;;;;;;6.04;100.00;101073.25;5050315;28;19921;-71
2024/03/09 07:28:22;;;;;;;;;;;;;;;6.04;100.00;101063.00;5048451;28;20292;-72
2024/03/09 07:30:48;;;;;;;;;;;;;;;6.09;100.00;101071.88;5050596;28;20567;-72
2024/03/09 07:33:13;;;;;;;;;;;;;;;6.13;100.00;101069.63;5026014;28;19924;-71
2024/03/09 07:35:38;;;;;;;;;;;;;;;5.99;100.00;101072.94;5050485;28;19928;-72
2024/03/09 07:38:04;;;;;;;;;;;;;;;5.79;100.00;101071.63;5050188;28;19912;-74
2024/03/09 07:40:31;;;;;;;;;;;;;;;5.76;100.00;101076.56;5049833;28;20350;-72
2024/03/09 07:42:57;;;;;;;;;;;;;;;5.94;100.00;101070.06;5048317;28;19935;-72
2024/03/09 07:45:24;;;;;;;;;;;;;;;6.07;100.00;101068.31;5049435;28;19925;-71
2024/03/09 07:47:50;;;;;;;;;;;;;;;6.17;100.00;101074.94;5049791;28;19929;-73
2024/03/09 07:50:21;;;;;;;;;;;;;;;6.13;100.00;101073.84;5050532;28;19967;-72
2024/03/09 07:52:52;;;;;;;;;;;;;;;6.23;100.00;101072.75;5049154;28;19929;-71
2024/03/09 07:55:20;;;;;;;;;;;;;;;6.35;100.00;101067.53;5049758;28;19976;-78
2024/03/09 07:57:49;;;;;;;;;;;;;;;6.50;100.00;101067.63;5031443;28;19921;-71
2024/03/09 08:00:22;;;;;;;;;;;;;;;6.49;100.00;101074.41;5040880;28;20312;-72
2024/03/09 08:02:48;;;;;;;;;;;;;;;6.67;100.00;101073.78;5049574;28;19967;-71
2024/03/09 08:05:19;;;;;;;;;;;;;;;6.75;100.00;101073.50;5049133;28;20019;-71
2024/03/09 08:07:44;;;;;;;;;;;;;;;6.86;100.00;101071.59;5049016;28;19921;-75
2024/03/09 08:10:19;;;;;;;;;;;;;;;6.92;100.00;101073.66;5049350;28;19927;-70
2024/03/09 08:12:45;;;;;;;;;;;;;;;7.05;100.00;101070.13;5047322;28;19917;-74
2024/03/09 08:15:12;;;;;;;;;;;;;;;7.15;100.00;101066.47;5049294;28;20410;-71
2024/03/09 08:17:38;;;;;;;;;;;;;;;7.19;100.00;101071.88;5037628;28;19921;-71
2024/03/09 08:20:07;;;;;;;;;;;;;;;7.33;100.00;101069.22;5049311;28;19955;-72
2024/03/09 08:22:39;;;;;;;;;;;;;;;7.49;100.00;101064.22;5049535;28;20482;-73
2024/03/09 08:25:06;;;;;;;;;;;;;;;7.57;100.00;101070.69;5048669;28;19916;-70
2024/03/09 08:27:35;;;;;;;;;;;;;;;7.65;100.00;101072.81;5049076;28;19928;-70
2024/03/09 08:30:03;;;;;;;;;;;;;;;7.76;100.00;101070.09;5049008;28;19921;-71
2024/03/09 08:32:29;;;;;;;;;;;;;;;7.83;100.00;101066.19;5048879;28;19924;-71
2024/03/09 08:34:54;;;;;;;;;;;;;;;7.94;100.00;101062.53;5049016;28;19931;-72
2024/03/09 08:37:20;;;;;;;;;;;;;;;8.03;100.00;101067.31;5049457;28;19921;-70
2024/03/09 08:39:45;;;;;;;;;;;;;;;7.94;100.00;101069.38;5048948;28;19921;-71
2024/03/09 08:42:11;;;;;;;;;;;;;;;7.96;100.00;101065.19;5048847;28;20390;-73
2024/03/09 08:44:38;;;;;;;;;;;;;;;8.00;100.00;101068.81;5048925;28;19928;-72
2024/03/09 08:47:03;;;;;;;;;;;;;;;8.13;100.00;101063.59;5049772;28;19921;-72
2024/03/09 08:49:29;;;;;;;;;;;;;;;8.29;100.00;101065.34;5049058;28;20035;-73
2024/03/09 08:51:54;;;;;;;;;;;;;;;8.29;100.00;101060.19;5048701;28;19921;-71
2024/03/09 08:54:20;;;;;;;;;;;;;;;8.45;100.00;101066.16;5049515;28;19972;-70
2024/03/09 08:56:47;;;;;;;;;;;;;;;8.51;100.00;101064.88;5053243;28;19924;-70
2024/03/09 08:59:12;;;;;;;;;;;;;;;8.67;100.00;101065.69;5052472;28;20007;-72
2024/03/09 09:01:38;;;;;;;;;;;;;;;8.74;100.00;101063.53;5046711;28;20008;-71
2024/03/09 09:04:04;;;;;;;;;;;;;;;8.79;100.00;101065.47;5052634;28;19920;-71
2024/03/09 09:06:30;;;;;;;;;;;;;;;8.90;100.00;101056.66;5052553;28;19921;-73
2024/03/09 09:08:58;;;;;;;;;;;;;;;8.99;100.00;101054.53;5035372;28;20355;-73
2024/03/09 09:11:23;;;;;;;;;;;;;;;9.03;100.00;101056.50;5052959;28;19927;-73
2024/03/09 09:13:49;;;;;;;;;;;;;;;9.06;100.00;101058.34;5052278;28;20303;-72
2024/03/09 09:16:18;;;;;;;;;;;;;;;9.10;100.00;101055.13;5052704;28;20466;-72
2024/03/09 09:18:43;;;;;;;;;;;;;;;9.15;100.00;101053.66;5053111;28;19920;-73
2024/03/09 09:21:09;;;;;;;;;;;;;;;9.24;100.00;101063.56;5052664;28;20357;-72
2024/03/09 09:23:34;;;;;;;;;;;;;;;9.28;100.00;101054.28;5052767;28;20368;-73
2024/03/09 09:26:01;;;;;;;;;;;;;;;9.30;100.00;101058.72;5052456;28;19967;-72
2024/03/09 09:28:26;;;;;;;;;;;;;;;9.52;100.00;101055.56;5052193;28;20004;-74
2024/03/09 09:30:51;;;;;;;;;;;;;;;9.68;100.00;101044.31;5052392;28;20106;-72
2024/03/09 09:33:17;;;;;;;;;;;;;;;9.88;100.00;101049.56;5052297;28;19957;-71
2024/03/09 09:35:42;;;;;;;;;;;;;;;9.81;100.00;101053.53;5051179;28;19928;-72
2024/03/09 09:38:08;;;;;;;;;;;;;;;9.92;100.00;101050.59;5034201;28;20402;-76
2024/03/09 09:40:33;;;;;;;;;;;;;;;10.05;100.00;101042.66;5052703;28;20444;-73
2024/03/09 09:43:00;;;;;;;;;;;;;;;10.05;100.00;101050.38;5051531;28;19925;-74
2024/03/09 09:45:28;;;;;;;;;;;;;;;9.99;100.00;101050.09;5051952;28;19925;-73
2024/03/09 09:47:54;;;;;;;;;;;;;;;9.96;100.00;101049.97;5051800;28;20362;-72
2024/03/09 09:50:21;;;;;;;;;;;;;;;9.84;100.00;101051.13;5052480;28;20315;-72
2024/03/09 09:52:48;;;;;;;;;;;;;;;9.58;100.00;101048.94;5050481;28;20338;-73
2024/03/09 09:55:15;;;;;;;;;;;;;;;9.49;100.00;101054.50;5051593;28;20400;-72
2024/03/09 09:57:48;;;;;;;;;;;;;;;9.45;100.00;101058.63;5051142;28;19921;-73
2024/03/09 10:00:14;;;;;;;;;;;;;;;9.46;100.00;101054.34;5051587;28;19921;-74
2024/03/09 10:02:40;;;;;;;;;;;;;;;9.44;100.00;101055.97;5034488;28;19921;-71
2024/03/09 10:05:11;;;;;;;;;;;;;;;9.43;100.00;101062.78;5051309;28;19921;-75
2024/03/09 10:07:37;;;;;;;;;;;;;;;9.36;100.00;101063.31;5050549;28;19970;-73
2024/03/09 10:10:15;;;;;;;;;;;;;;;9.34;100.00;101060.63;5052011;28;19916;-72
2024/03/09 10:12:41;;;;;;;;;;;;;;;9.41;100.00;101064.44;5050371;28;19940;-73
2024/03/09 10:15:26;;;;;;;;;;;;;;;9.39;100.00;101058.31;5024301;28;19925;-71
2024/03/09 10:17:51;;;;;;;;;;;;;;;9.37;100.00;101057.34;5029067;28;20388;-72
2024/03/09 10:20:17;;;;;;;;;;;;;;;9.42;100.00;101053.31;5029393;28;19928;-72
2024/03/09 10:22:42;;;;;;;;;;;;;;;9.44;100.00;101055.97;5028423;28;19921;-77
2024/03/09 10:25:08;;;;;;;;;;;;;;;9.42;100.00;101055.91;5028187;28;19921;-73
2024/03/09 10:27:33;;;;;;;;;;;;;;;9.42;100.00;101055.00;5028978;28;20019;-70
2024/03/09 10:30:10;;;;;;;;;;;;;;;9.41;100.00;101038.66;5026633;28;19932;-73
2024/03/09 10:32:41;;;;;;;;;;;;;;;9.38;100.00;101031.66;5026857;28;20015;-72
2024/03/09 10:35:09;;;;;;;;;;;;;;;9.26;100.00;101045.59;5028348;28;19925;-71
2024/03/09 10:37:37;;;;;;;;;;;;;;;9.28;100.00;101041.41;5023351;28;19917;-72
2024/03/09 10:40:06;;;;;;;;;;;;;;;9.38;100.00;101035.91;4975225;28;19956;-77
2024/03/09 10:42:33;;;;;;;;;;;;;;;9.49;100.00;101029.59;5028406;28;19925;-73
2024/03/09 10:45:02;;;;;;;;;;;;;;;9.48;100.00;101027.88;5028333;28;19921;-71
2024/03/09 10:47:29;;;;;;;;;;;;;;;9.44;100.00;101028.50;5045237;28;19952;-74
2024/03/09 10:49:59;;;;;;;;;;;;;;;9.48;100.00;101027.88;5033540;28;19917;-72
2024/03/09 10:52:26;;;;;;;;;;;;;;;9.52;100.00;101023.72;5050981;28;20004;-72
2024/03/09 10:55:02;;;;;;;;;;;;;;;9.58;100.00;101028.31;5050975;28;19916;-75
2024/03/09 10:57:29;;;;;;;;;;;;;;;9.63;100.00;101026.84;5050689;28;20035;-72
2024/03/09 11:00:28;;;;;;;;;;;;;;;9.71;100.00;101021.25;5050200;28;19982;-74
2024/03/09 11:02:54;;;;;;;;;;;;;;;9.81;100.00;101026.88;5007716;28;19933;-73
2024/03/09 11:05:22;;;;;;;;;;;;;;;9.82;100.00;101024.38;5007922;28;19926;-73
2024/03/09 11:07:50;;;;;;;;;;;;;;;9.69;100.00;101019.41;5007927;28;19928;-74
2024/03/09 11:10:17;;;;;;;;;;;;;;;9.78;100.00;101019.88;5008431;28;19945;-74
2024/03/09 11:12:43;;;;;;;;;;;;;;;9.54;100.00;101017.88;5008114;28;19918;-73
2024/03/09 11:15:08;;;;;;;;;;;;;;;9.53;100.00;101013.50;5008424;28;19975;-73
2024/03/09 11:17:35;;;;;;;;;;;;;;;9.72;100.00;101022.16;5008193;28;20019;-72
2024/03/09 11:20:00;;;;;;;;;;;;;;;9.74;100.00;101020.53;5008735;28;20139;-73
2024/03/09 11:22:45;;;;;;;;;;;;;;;9.73;100.00;101013.59;5007983;28;20020;-74
2024/03/09 11:25:12;;;;;;;;;;;;;;;9.73;100.00;101013.59;5007107;28;19933;-73
2024/03/09 11:27:41;;;;;;;;;;;;;;;9.74;100.00;101005.03;5008171;28;19928;-72
2024/03/09 11:30:07;;;;;;;;;;;;;;;9.91;100.00;100999.84;4986209;28;20352;-73
2024/03/09 11:32:35;;;;;;;;;;;;;;;9.93;100.00;101000.78;4969882;28;19922;-72
2024/03/09 11:35:18;;;;;;;;;;;;;;;9.93;100.00;100990.47;5007476;28;20316;-73
2024/03/09 11:37:47;;;;;;;;;;;;;;;9.88;100.00;101000.56;5002705;28;19921;-72
2024/03/09 11:40:12;;;;;;;;;;;;;;;9.82;100.00;100992.53;5007750;28;19922;-75
2024/03/09 11:42:38;;;;;;;;;;;;;;;9.89;100.00;100994.59;4974376;28;20010;-72
2024/03/09 11:45:18;;;;;;;;;;;;;;;9.97;100.00;101000.09;5017800;28;19921;-72
2024/03/09 11:47:46;;;;;;;;;;;;;;;10.09;100.00;100995.53;5010094;28;20152;-75
2024/03/09 11:50:11;;;;;;;;;;;;;;;10.22;100.00;100993.53;5016635;28;20008;-76
2024/03/09 11:52:36;;;;;;;;;;;;;;;10.32;100.00;100986.31;5014550;28;20014;-74
2024/03/09 11:55:03;;;;;;;;;;;;;;;10.46;100.00;100989.53;5003265;28;19921;-73
2024/03/09 11:57:29;;;;;;;;;;;;;;;10.57;100.00;100991.75;5015282;28;19988;-71
2024/03/09 11:59:57;;;;;;;;;;;;;;;10.75;100.00;100992.56;4995798;28;19922;-76
2024/03/09 12:02:24;;;;;;;;;;;;;;;10.89;100.00;100990.59;5010704;28;19921;-74
2024/03/09 12:04:49;;;;;;;;;;;;;;;10.89;100.00;100988.03;5017573;28;19947;-72
2024/03/09 12:07:15;;;;;;;;;;;;;;;10.90;100.00;100983.72;5029743;28;19917;-74
2024/03/09 12:10:01;;;;;;;;;;;;;;;10.81;100.00;100984.22;5020422;28;19921;-73
2024/03/09 12:12:26;;;;;;;;;;;;;;;10.81;100.00;100979.03;4964713;28;19913;-71
2024/03/09 12:14:52;;;;;;;;;;;;;;;10.79;100.00;100984.16;4963347;28;19932;-73
2024/03/09 12:17:17;;;;;;;;;;;;;;;10.72;100.00;100982.09;4960271;28;19929;-71
2024/03/09 12:19:43;;;;;;;;;;;;;;;10.73;100.00;100978.72;4954592;28;19929;-71
2024/03/09 12:22:10;;;;;;;;;;;;;;;10.74;100.00;100979.59;4960458;28;19933;-74
2024/03/09 12:24:35;;;;;;;;;;;;;;;10.70;100.00;100967.34;4958727;28;19981;-73
2024/03/09 12:27:01;;;;;;;;;;;;;;;10.64;100.00;100974.03;4961378;28;19926;-73
2024/03/09 12:29:27;;;;;;;;;;;;;;;10.29;100.00;100970.69;4961755;28;19981;-71
2024/03/09 12:31:55;;;;;;;;;;;;;;;10.00;100.00;100977.94;4963521;28;19937;-72
2024/03/09 12:34:21;;;;;;;;;;;;;;;9.98;100.00;100969.25;4964008;28;19965;-72